createdAt,value
2022-08-30T00:00:00.826Z,1008.21
2022-08-30T00:00:21.875Z,1008.21
2022-08-30T00:00:42.940Z,1008.21
2022-08-30T00:01:03.992Z,1008.21
2022-08-30T00:01:25.046Z,1008.19
2022-08-30T00:01:46.096Z,1008.23
2022-08-30T00:02:07.143Z,1008.21
2022-08-30T00:02:28.437Z,1008.21
2022-08-30T00:02:49.739Z,1008.21
2022-08-30T00:03:11.096Z,1008.21
2022-08-30T00:03:32.482Z,1008.23
2022-08-30T00:03:54.688Z,1008.23
2022-08-30T00:04:15.752Z,1008.19
2022-08-30T00:04:36.807Z,1008.17
2022-08-30T00:04:57.853Z,1008.17
2022-08-30T00:05:19.018Z,1008.17
2022-08-30T00:05:40.199Z,1008.17
2022-08-30T00:06:01.249Z,1008.17
2022-08-30T00:06:22.299Z,1008.17
2022-08-30T00:06:43.347Z,1008.17
2022-08-30T00:07:04.407Z,1008.19
2022-08-30T00:07:25.443Z,1008.19
2022-08-30T00:07:46.498Z,1008.15
2022-08-30T00:08:07.549Z,1008.19
2022-08-30T00:08:28.597Z,1008.19
2022-08-30T00:08:49.646Z,1008.17
2022-08-30T00:09:10.698Z,1008.19
2022-08-30T00:09:31.746Z,1008.21
2022-08-30T00:09:52.804Z,1008.17
2022-08-30T00:10:13.846Z,1008.17
2022-08-30T00:10:34.892Z,1008.17
2022-08-30T00:10:56.053Z,1008.19
2022-08-30T00:11:17.110Z,1008.19
2022-08-30T00:11:38.163Z,1008.19
2022-08-30T00:11:59.219Z,1008.15
2022-08-30T00:12:20.272Z,1008.15
2022-08-30T00:12:41.323Z,1008.17
2022-08-30T00:13:02.383Z,1008.15
2022-08-30T00:13:23.431Z,1008.15
2022-08-30T00:13:44.490Z,1008.15
2022-08-30T00:14:05.537Z,1008.13
2022-08-30T00:14:26.591Z,1008.13
2022-08-30T00:14:47.644Z,1008.15
2022-08-30T00:15:08.695Z,1008.15
2022-08-30T00:15:30.920Z,1008.11
2022-08-30T00:15:51.979Z,1008.13
2022-08-30T00:16:13.143Z,1008.13
2022-08-30T00:16:34.218Z,1008.15
2022-08-30T00:16:55.276Z,1008.11
2022-08-30T00:17:16.328Z,1008.11
2022-08-30T00:17:37.389Z,1008.13
2022-08-30T00:17:58.438Z,1008.11
2022-08-30T00:18:19.494Z,1008.11
2022-08-30T00:18:40.540Z,1008.11
2022-08-30T00:19:01.586Z,1008.09
2022-08-30T00:19:22.636Z,1008.11
2022-08-30T00:19:43.685Z,1008.13
2022-08-30T00:20:04.733Z,1008.07
2022-08-30T00:20:25.786Z,1008.07
2022-08-30T00:20:46.827Z,1008.07
2022-08-30T00:21:07.881Z,1008.03
2022-08-30T00:21:28.956Z,1008.05
2022-08-30T00:21:50.009Z,1008.05
2022-08-30T00:22:11.087Z,1008.05
2022-08-30T00:22:32.124Z,1008.09
2022-08-30T00:22:53.174Z,1008.07
2022-08-30T00:23:14.220Z,1008.07
2022-08-30T00:23:35.271Z,1008.09
2022-08-30T00:23:56.323Z,1008.09
2022-08-30T00:24:17.375Z,1008.07
2022-08-30T00:24:38.419Z,1008.07
2022-08-30T00:24:59.470Z,1008.09
2022-08-30T00:25:20.516Z,1008.07
2022-08-30T00:25:41.570Z,1008.07
2022-08-30T00:26:02.648Z,1008.07
2022-08-30T00:26:23.666Z,1008.09
2022-08-30T00:26:44.850Z,1008.09
2022-08-30T00:27:05.904Z,1008.09
2022-08-30T00:27:26.939Z,1008.09
2022-08-30T00:27:47.991Z,1008.09
2022-08-30T00:28:09.041Z,1008.09
2022-08-30T00:28:30.088Z,1008.09
2022-08-30T00:28:51.137Z,1008.11
2022-08-30T00:29:12.183Z,1008.09
2022-08-30T00:29:33.238Z,1008.09
2022-08-30T00:29:54.287Z,1008.11
2022-08-30T00:30:15.340Z,1008.09
2022-08-30T00:30:36.385Z,1008.07
2022-08-30T00:30:57.544Z,1008.09
2022-08-30T00:31:18.741Z,1008.11
2022-08-30T00:31:39.819Z,1008.09
2022-08-30T00:32:00.883Z,1008.11
2022-08-30T00:32:21.932Z,1008.13
2022-08-30T00:32:42.979Z,1008.11
2022-08-30T00:33:04.029Z,1008.11
2022-08-30T00:33:25.081Z,1008.07
2022-08-30T00:33:46.128Z,1008.09
2022-08-30T00:34:07.175Z,1008.11
2022-08-30T00:34:28.224Z,1008.09
2022-08-30T00:34:49.272Z,1008.05
2022-08-30T00:35:10.332Z,1008.07
2022-08-30T00:35:31.381Z,1008.09
2022-08-30T00:35:52.426Z,1008.07
2022-08-30T00:36:13.476Z,1008.09
2022-08-30T00:36:34.631Z,1008.07
2022-08-30T00:36:55.678Z,1008.11
2022-08-30T00:37:16.745Z,1008.09
2022-08-30T00:37:37.792Z,1008.07
2022-08-30T00:37:58.845Z,1008.11
2022-08-30T00:38:19.894Z,1008.09
2022-08-30T00:38:40.951Z,1008.07
2022-08-30T00:39:02.004Z,1008.11
2022-08-30T00:39:23.051Z,1008.11
2022-08-30T00:39:44.115Z,1008.09
2022-08-30T00:40:05.249Z,1008.11
2022-08-30T00:40:27.652Z,1008.05
2022-08-30T00:40:48.805Z,1008.07
2022-08-30T00:41:09.843Z,1008.09
2022-08-30T00:41:30.895Z,1008.07
2022-08-30T00:41:51.971Z,1008.07
2022-08-30T00:42:13.019Z,1008.09
2022-08-30T00:42:34.068Z,1008.09
2022-08-30T00:42:59.263Z,1008.07
2022-08-30T00:43:20.836Z,1008.11
2022-08-30T00:43:41.888Z,1008.11
2022-08-30T00:44:02.949Z,1008.09
2022-08-30T00:44:24.000Z,1008.11
2022-08-30T00:44:45.054Z,1008.11
2022-08-30T00:45:06.097Z,1008.09
2022-08-30T00:45:27.144Z,1008.11
2022-08-30T00:45:48.273Z,1008.13
2022-08-30T00:46:09.315Z,1008.07
2022-08-30T00:46:30.393Z,1008.09
2022-08-30T00:46:51.421Z,1008.09
2022-08-30T00:47:12.474Z,1008.11
2022-08-30T00:47:33.523Z,1008.11
2022-08-30T00:47:54.569Z,1008.09
2022-08-30T00:48:15.620Z,1008.09
2022-08-30T00:48:36.672Z,1008.09
2022-08-30T00:48:58.909Z,1008.07
2022-08-30T00:49:19.956Z,1008.11
2022-08-30T00:49:41.006Z,1008.11
2022-08-30T00:50:02.060Z,1008.07
2022-08-30T00:50:23.109Z,1008.07
2022-08-30T00:50:44.156Z,1008.07
2022-08-30T00:51:05.205Z,1008.05
2022-08-30T00:51:26.260Z,1008.07
2022-08-30T00:51:47.303Z,1008.07
2022-08-30T00:52:08.375Z,1008.03
2022-08-30T00:52:29.434Z,1008.05
2022-08-30T00:52:50.486Z,1008.05
2022-08-30T00:53:11.527Z,1008.07
2022-08-30T00:53:32.587Z,1008.09
2022-08-30T00:53:53.643Z,1008.07
2022-08-30T00:54:14.700Z,1008.09
2022-08-30T00:54:35.747Z,1008.11
2022-08-30T00:54:56.800Z,1008.07
2022-08-30T00:55:17.849Z,1008.09
2022-08-30T00:55:39.114Z,1008.07
2022-08-30T00:56:03.865Z,1008.03
2022-08-30T00:56:24.915Z,1008.07
2022-08-30T00:56:45.962Z,1008.07
2022-08-30T00:57:07.029Z,1008.07
2022-08-30T00:57:28.077Z,1008.07
2022-08-30T00:57:49.129Z,1008.07
2022-08-30T00:58:10.175Z,1008.09
2022-08-30T00:58:31.236Z,1008.09
2022-08-30T00:58:52.285Z,1008.11
2022-08-30T00:59:13.345Z,1008.13
2022-08-30T00:59:34.401Z,1008.11
2022-08-30T00:59:55.437Z,1008.07
2022-08-30T01:00:16.491Z,1008.11
2022-08-30T01:00:37.540Z,1008.11
2022-08-30T01:00:58.599Z,1008.11
2022-08-30T01:01:19.706Z,1008.13
2022-08-30T01:01:40.748Z,1008.13
2022-08-30T01:02:01.881Z,1008.15
2022-08-30T01:02:23.197Z,1008.13
2022-08-30T01:02:44.283Z,1008.13
2022-08-30T01:03:07.916Z,1008.15
2022-08-30T01:03:28.964Z,1008.15
2022-08-30T01:03:50.021Z,1008.15
2022-08-30T01:04:11.084Z,1008.15
2022-08-30T01:04:32.120Z,1008.13
2022-08-30T01:04:53.185Z,1008.17
2022-08-30T01:05:16.171Z,1008.13
2022-08-30T01:05:37.834Z,1008.13
2022-08-30T01:05:58.880Z,1008.13
2022-08-30T01:06:19.932Z,1008.11
2022-08-30T01:06:40.976Z,1008.13
2022-08-30T01:07:02.134Z,1008.13
2022-08-30T01:07:23.185Z,1008.13
2022-08-30T01:07:44.231Z,1008.13
2022-08-30T01:08:05.278Z,1008.15
2022-08-30T01:08:26.336Z,1008.13
2022-08-30T01:08:47.381Z,1008.13
2022-08-30T01:09:09.168Z,1008.13
2022-08-30T01:09:30.219Z,1008.13
2022-08-30T01:09:51.265Z,1008.15
2022-08-30T01:10:12.336Z,1008.15
2022-08-30T01:10:33.364Z,1008.17
2022-08-30T01:10:54.413Z,1008.17
2022-08-30T01:11:15.460Z,1008.13
2022-08-30T01:11:36.515Z,1008.17
2022-08-30T01:11:57.560Z,1008.17
2022-08-30T01:12:18.717Z,1008.13
2022-08-30T01:12:39.765Z,1008.11
2022-08-30T01:13:00.829Z,1008.17
2022-08-30T01:13:21.877Z,1008.19
2022-08-30T01:13:43.066Z,1008.15
2022-08-30T01:14:04.114Z,1008.13
2022-08-30T01:14:26.015Z,1008.13
2022-08-30T01:14:47.148Z,1008.15
2022-08-30T01:15:09.487Z,1008.17
2022-08-30T01:15:30.573Z,1008.17
2022-08-30T01:15:51.648Z,1008.17
2022-08-30T01:16:13.934Z,1008.17
2022-08-30T01:16:35.367Z,1008.15
2022-08-30T01:16:56.374Z,1008.17
2022-08-30T01:17:17.900Z,1008.17
2022-08-30T01:17:42.247Z,1008.17
2022-08-30T01:18:07.910Z,1008.15
2022-08-30T01:18:29.040Z,1008.19
2022-08-30T01:18:50.089Z,1008.17
2022-08-30T01:19:12.268Z,1008.17
2022-08-30T01:19:33.790Z,1008.15
2022-08-30T01:19:54.838Z,1008.21
2022-08-30T01:20:15.891Z,1008.17
2022-08-30T01:20:36.938Z,1008.19
2022-08-30T01:20:57.994Z,1008.17
2022-08-30T01:21:19.045Z,1008.17
2022-08-30T01:21:40.088Z,1008.17
2022-08-30T01:22:01.140Z,1008.17
2022-08-30T01:22:22.200Z,1008.17
2022-08-30T01:22:43.247Z,1008.17
2022-08-30T01:23:05.960Z,1008.13
2022-08-30T01:23:27.008Z,1008.19
2022-08-30T01:23:48.750Z,1008.19
2022-08-30T01:24:09.884Z,1008.19
2022-08-30T01:24:30.931Z,1008.19
2022-08-30T01:24:51.984Z,1008.19
2022-08-30T01:25:13.032Z,1008.19
2022-08-30T01:25:34.100Z,1008.21
2022-08-30T01:25:55.151Z,1008.19
2022-08-30T01:26:16.197Z,1008.19
2022-08-30T01:26:37.246Z,1008.19
2022-08-30T01:26:58.299Z,1008.21
2022-08-30T01:27:19.369Z,1008.17
2022-08-30T01:27:40.427Z,1008.19
2022-08-30T01:28:01.489Z,1008.19
2022-08-30T01:28:22.519Z,1008.21
2022-08-30T01:28:43.564Z,1008.23
2022-08-30T01:29:04.614Z,1008.23
2022-08-30T01:29:25.668Z,1008.23
2022-08-30T01:29:46.717Z,1008.23
2022-08-30T01:30:07.766Z,1008.23
2022-08-30T01:30:28.878Z,1008.25
2022-08-30T01:30:49.973Z,1008.23
2022-08-30T01:31:11.123Z,1008.27
2022-08-30T01:31:32.188Z,1008.25
2022-08-30T01:31:53.253Z,1008.27
2022-08-30T01:32:14.294Z,1008.25
2022-08-30T01:32:35.365Z,1008.25
2022-08-30T01:32:56.420Z,1008.27
2022-08-30T01:33:17.622Z,1008.25
2022-08-30T01:33:38.762Z,1008.27
2022-08-30T01:33:59.797Z,1008.25
2022-08-30T01:34:20.849Z,1008.25
2022-08-30T01:34:42.344Z,1008.23
2022-08-30T01:35:03.396Z,1008.23
2022-08-30T01:35:24.444Z,1008.23
2022-08-30T01:35:45.495Z,1008.23
2022-08-30T01:36:06.540Z,1008.23
2022-08-30T01:36:27.590Z,1008.21
2022-08-30T01:36:48.644Z,1008.23
2022-08-30T01:37:09.691Z,1008.23
2022-08-30T01:37:30.738Z,1008.21
2022-08-30T01:37:51.807Z,1008.19
2022-08-30T01:38:13.489Z,1008.19
2022-08-30T01:38:34.546Z,1008.19
2022-08-30T01:38:55.591Z,1008.19
2022-08-30T01:39:16.643Z,1008.19
2022-08-30T01:39:37.688Z,1008.21
2022-08-30T01:39:58.775Z,1008.17
2022-08-30T01:40:19.869Z,1008.19
2022-08-30T01:40:41.020Z,1008.13
2022-08-30T01:41:02.085Z,1008.19
2022-08-30T01:41:23.131Z,1008.13
2022-08-30T01:41:44.179Z,1008.15
2022-08-30T01:42:05.234Z,1008.15
2022-08-30T01:42:26.281Z,1008.13
2022-08-30T01:42:49.036Z,1008.11
2022-08-30T01:43:10.091Z,1008.11
2022-08-30T01:43:31.151Z,1008.13
2022-08-30T01:43:52.206Z,1008.11
2022-08-30T01:44:13.252Z,1008.11
2022-08-30T01:44:34.303Z,1008.11
2022-08-30T01:44:55.347Z,1008.13
2022-08-30T01:45:16.395Z,1008.09
2022-08-30T01:45:37.515Z,1008.11
2022-08-30T01:45:58.580Z,1008.09
2022-08-30T01:46:19.737Z,1008.07
2022-08-30T01:46:40.869Z,1008.11
2022-08-30T01:47:01.923Z,1008.11
2022-08-30T01:47:22.973Z,1008.09
2022-08-30T01:47:44.018Z,1008.09
2022-08-30T01:48:05.522Z,1008.09
2022-08-30T01:48:31.162Z,1008.11
2022-08-30T01:48:53.956Z,1008.07
2022-08-30T01:49:15.418Z,1008.11
2022-08-30T01:49:36.465Z,1008.09
2022-08-30T01:49:57.521Z,1008.11
2022-08-30T01:50:18.575Z,1008.11
2022-08-30T01:50:40.166Z,1008.15
2022-08-30T01:51:01.222Z,1008.11
2022-08-30T01:51:22.274Z,1008.11
2022-08-30T01:51:43.318Z,1008.05
2022-08-30T01:52:04.370Z,1008.07
2022-08-30T01:52:25.422Z,1008.07
2022-08-30T01:52:46.478Z,1008.09
2022-08-30T01:53:07.529Z,1008.05
2022-08-30T01:53:31.381Z,1008.05
2022-08-30T01:53:52.418Z,1008.07
2022-08-30T01:54:13.470Z,1008.07
2022-08-30T01:54:37.028Z,1008.05
2022-08-30T01:54:59.352Z,1008.07
2022-08-30T01:55:20.396Z,1008.07
2022-08-30T01:55:41.449Z,1008.07
2022-08-30T01:56:02.494Z,1008.05
2022-08-30T01:56:23.542Z,1008.01
2022-08-30T01:56:44.590Z,1008.03
2022-08-30T01:57:05.651Z,1008.05
2022-08-30T01:57:26.703Z,1008.01
2022-08-30T01:57:47.754Z,1008.01
2022-08-30T01:58:08.798Z,1007.99
2022-08-30T01:58:29.849Z,1008.01
2022-08-30T01:58:50.922Z,1008.01
2022-08-30T01:59:11.973Z,1008.01
2022-08-30T01:59:34.893Z,1008.03
2022-08-30T01:59:55.941Z,1008.01
2022-08-30T02:00:17.002Z,1007.99
2022-08-30T02:00:38.051Z,1008.01
2022-08-30T02:00:59.153Z,1007.99
2022-08-30T02:01:20.235Z,1007.99
2022-08-30T02:01:41.343Z,1007.99
2022-08-30T02:02:02.386Z,1007.97
2022-08-30T02:02:23.435Z,1007.97
2022-08-30T02:02:44.482Z,1007.99
2022-08-30T02:03:05.534Z,1007.97
2022-08-30T02:03:26.613Z,1007.97
2022-08-30T02:03:47.723Z,1007.97
2022-08-30T02:04:08.998Z,1007.97
2022-08-30T02:04:30.030Z,1007.97
2022-08-30T02:04:51.079Z,1007.97
2022-08-30T02:05:12.128Z,1007.99
2022-08-30T02:05:33.178Z,1007.97
2022-08-30T02:05:54.232Z,1007.97
2022-08-30T02:06:15.281Z,1007.97
2022-08-30T02:06:36.326Z,1007.99
2022-08-30T02:06:57.376Z,1007.97
2022-08-30T02:07:18.483Z,1007.99
2022-08-30T02:07:39.516Z,1007.97
2022-08-30T02:08:00.562Z,1007.99
2022-08-30T02:08:21.616Z,1007.97
2022-08-30T02:08:42.660Z,1007.99
2022-08-30T02:09:03.708Z,1008.01
2022-08-30T02:09:24.870Z,1007.99
2022-08-30T02:09:46.243Z,1008.01
2022-08-30T02:10:07.353Z,1008.03
2022-08-30T02:10:28.394Z,1007.99
2022-08-30T02:10:49.445Z,1007.99
2022-08-30T02:11:10.499Z,1008.01
2022-08-30T02:11:31.549Z,1008.01
2022-08-30T02:11:52.595Z,1008.01
2022-08-30T02:12:13.647Z,1008.01
2022-08-30T02:12:34.710Z,1007.99
2022-08-30T02:12:55.759Z,1007.99
2022-08-30T02:13:17.163Z,1008.01
2022-08-30T02:13:38.321Z,1007.99
2022-08-30T02:13:59.366Z,1007.99
2022-08-30T02:14:21.087Z,1007.99
2022-08-30T02:14:42.274Z,1008.01
2022-08-30T02:15:03.437Z,1008.01
2022-08-30T02:15:24.491Z,1008.01
2022-08-30T02:15:45.537Z,1007.99
2022-08-30T02:16:06.582Z,1007.99
2022-08-30T02:16:27.724Z,1007.99
2022-08-30T02:16:48.856Z,1007.97
2022-08-30T02:17:10.605Z,1007.99
2022-08-30T02:17:31.658Z,1008.01
2022-08-30T02:17:52.708Z,1007.99
2022-08-30T02:18:13.758Z,1007.99
2022-08-30T02:18:34.818Z,1007.99
2022-08-30T02:18:55.890Z,1007.99
2022-08-30T02:19:16.922Z,1007.99
2022-08-30T02:19:37.971Z,1007.99
2022-08-30T02:19:59.023Z,1007.99
2022-08-30T02:20:20.093Z,1007.97
2022-08-30T02:20:41.142Z,1007.95
2022-08-30T02:21:02.195Z,1007.99
2022-08-30T02:21:23.245Z,1007.99
2022-08-30T02:21:44.313Z,1007.99
2022-08-30T02:22:05.354Z,1007.99
2022-08-30T02:22:26.431Z,1007.97
2022-08-30T02:22:49.173Z,1007.99
2022-08-30T02:23:10.573Z,1008.01
2022-08-30T02:23:31.624Z,1007.95
2022-08-30T02:23:52.781Z,1008.01
2022-08-30T02:24:13.830Z,1007.97
2022-08-30T02:24:34.876Z,1007.99
2022-08-30T02:24:55.924Z,1007.97
2022-08-30T02:25:20.907Z,1008.01
2022-08-30T02:25:42.375Z,1007.99
2022-08-30T02:26:03.420Z,1008.01
2022-08-30T02:26:24.473Z,1007.99
2022-08-30T02:26:45.521Z,1007.99
2022-08-30T02:27:06.573Z,1007.99
2022-08-30T02:27:27.618Z,1007.95
2022-08-30T02:27:48.668Z,1007.95
2022-08-30T02:28:09.726Z,1007.99
2022-08-30T02:28:30.764Z,1007.97
2022-08-30T02:28:51.812Z,1007.99
2022-08-30T02:29:12.867Z,1007.99
2022-08-30T02:29:33.918Z,1007.97
2022-08-30T02:29:54.967Z,1007.99
2022-08-30T02:30:16.015Z,1007.99
2022-08-30T02:30:37.178Z,1007.99
2022-08-30T02:30:58.320Z,1007.99
2022-08-30T02:31:20.974Z,1008.03
2022-08-30T02:31:42.147Z,1008.01
2022-08-30T02:32:03.202Z,1008.01
2022-08-30T02:32:24.247Z,1008.01
2022-08-30T02:32:45.293Z,1008.03
2022-08-30T02:33:06.342Z,1008.03
2022-08-30T02:33:27.392Z,1008.03
2022-08-30T02:33:48.438Z,1008.07
2022-08-30T02:34:09.515Z,1008.03
2022-08-30T02:34:30.572Z,1008.01
2022-08-30T02:34:51.620Z,1008.01
2022-08-30T02:35:13.305Z,1008.03
2022-08-30T02:35:34.351Z,1008.05
2022-08-30T02:35:55.399Z,1008.01
2022-08-30T02:36:16.449Z,1008.03
2022-08-30T02:36:37.498Z,1008.03
2022-08-30T02:36:58.549Z,1008.07
2022-08-30T02:37:19.595Z,1008.03
2022-08-30T02:37:40.646Z,1008.05
2022-08-30T02:38:01.694Z,1008.05
2022-08-30T02:38:22.742Z,1008.03
2022-08-30T02:38:43.789Z,1008.05
2022-08-30T02:39:04.843Z,1008.03
2022-08-30T02:39:25.911Z,1008.07
2022-08-30T02:39:46.962Z,1008.03
2022-08-30T02:40:08.039Z,1008.05
2022-08-30T02:40:29.117Z,1008.07
2022-08-30T02:40:50.148Z,1008.11
2022-08-30T02:41:11.203Z,1008.11
2022-08-30T02:41:32.248Z,1008.11
2022-08-30T02:41:53.299Z,1008.09
2022-08-30T02:42:14.348Z,1008.13
2022-08-30T02:42:35.394Z,1008.15
2022-08-30T02:42:56.440Z,1008.13
2022-08-30T02:43:18.673Z,1008.15
2022-08-30T02:43:39.737Z,1008.17
2022-08-30T02:44:00.786Z,1008.15
2022-08-30T02:44:21.851Z,1008.17
2022-08-30T02:44:43.006Z,1008.17
2022-08-30T02:45:04.055Z,1008.17
2022-08-30T02:45:25.111Z,1008.15
2022-08-30T02:45:46.183Z,1008.15
2022-08-30T02:46:07.266Z,1008.15
2022-08-30T02:46:28.369Z,1008.17
2022-08-30T02:46:55.253Z,1008.11
2022-08-30T02:47:16.300Z,1008.11
2022-08-30T02:47:37.347Z,1008.11
2022-08-30T02:47:58.396Z,1008.11
2022-08-30T02:48:20.363Z,1008.07
2022-08-30T02:48:41.415Z,1008.07
2022-08-30T02:49:13.030Z,1008.07
2022-08-30T02:49:33.699Z,1008.09
2022-08-30T02:49:55.281Z,1008.09
2022-08-30T02:50:16.330Z,1008.07
2022-08-30T02:50:37.379Z,1008.07
2022-08-30T02:50:58.432Z,1008.09
2022-08-30T02:51:19.478Z,1008.05
2022-08-30T02:51:40.525Z,1008.05
2022-08-30T02:52:01.581Z,1008.05
2022-08-30T02:52:24.176Z,1008.03
2022-08-30T02:52:49.589Z,1008.03
2022-08-30T02:53:10.638Z,1008.05
2022-08-30T02:53:35.138Z,1008.05
2022-08-30T02:53:57.860Z,1008.05
2022-08-30T02:54:19.031Z,1008.03
2022-08-30T02:54:40.108Z,1008.05
2022-08-30T02:55:01.150Z,1008.05
2022-08-30T02:55:22.200Z,1008.07
2022-08-30T02:55:43.248Z,1008.07
2022-08-30T02:56:04.306Z,1008.07
2022-08-30T02:56:25.351Z,1008.09
2022-08-30T02:56:46.399Z,1008.07
2022-08-30T02:57:07.556Z,1008.09
2022-08-30T02:57:34.522Z,1008.09
2022-08-30T02:57:55.574Z,1008.11
2022-08-30T02:58:16.630Z,1008.11
2022-08-30T02:58:37.671Z,1008.09
2022-08-30T02:58:58.738Z,1008.11
2022-08-30T02:59:19.789Z,1008.11
2022-08-30T02:59:41.351Z,1008.13
2022-08-30T03:00:02.400Z,1008.13
2022-08-30T03:00:23.446Z,1008.09
2022-08-30T03:00:44.597Z,1008.09
2022-08-30T03:01:05.710Z,1008.09
2022-08-30T03:01:29.368Z,1008.05
2022-08-30T03:01:50.569Z,1008.09
2022-08-30T03:02:11.682Z,1008.07
2022-08-30T03:02:32.735Z,1008.07
2022-08-30T03:02:53.794Z,1008.07
2022-08-30T03:03:15.039Z,1008.07
2022-08-30T03:03:36.219Z,1008.09
2022-08-30T03:03:57.275Z,1008.11
2022-08-30T03:04:18.284Z,1008.13
2022-08-30T03:04:45.252Z,1008.07
2022-08-30T03:05:06.301Z,1008.03
2022-08-30T03:05:27.359Z,1008.05
2022-08-30T03:05:48.411Z,1008.05
2022-08-30T03:06:09.457Z,1008.05
2022-08-30T03:06:30.507Z,1008.05
2022-08-30T03:06:51.558Z,1008.05
2022-08-30T03:07:12.622Z,1008.01
2022-08-30T03:07:33.715Z,1008.01
2022-08-30T03:07:54.748Z,1008.01
2022-08-30T03:08:15.803Z,1008.01
2022-08-30T03:08:36.863Z,1008.01
2022-08-30T03:08:57.907Z,1008.01
2022-08-30T03:09:18.957Z,1007.99
2022-08-30T03:09:40.131Z,1007.99
2022-08-30T03:10:01.180Z,1007.99
2022-08-30T03:10:22.230Z,1008.01
2022-08-30T03:10:43.280Z,1007.97
2022-08-30T03:11:04.341Z,1007.95
2022-08-30T03:11:25.403Z,1007.95
2022-08-30T03:11:46.451Z,1007.95
2022-08-30T03:12:07.503Z,1007.95
2022-08-30T03:12:28.550Z,1007.87
2022-08-30T03:12:49.607Z,1007.87
2022-08-30T03:13:10.665Z,1007.85
2022-08-30T03:13:31.717Z,1007.83
2022-08-30T03:13:52.766Z,1007.85
2022-08-30T03:14:13.823Z,1007.85
2022-08-30T03:14:34.982Z,1007.85
2022-08-30T03:14:56.035Z,1007.85
2022-08-30T03:15:17.081Z,1007.85
2022-08-30T03:15:38.130Z,1007.83
2022-08-30T03:15:59.179Z,1007.87
2022-08-30T03:16:20.309Z,1007.87
2022-08-30T03:16:41.423Z,1007.85
2022-08-30T03:17:02.516Z,1007.83
2022-08-30T03:17:23.577Z,1007.85
2022-08-30T03:17:44.627Z,1007.87
2022-08-30T03:18:05.669Z,1007.85
2022-08-30T03:18:26.730Z,1007.87
2022-08-30T03:18:47.774Z,1007.87
2022-08-30T03:19:08.821Z,1007.87
2022-08-30T03:19:29.873Z,1007.87
2022-08-30T03:19:50.942Z,1007.87
2022-08-30T03:20:11.999Z,1007.87
2022-08-30T03:20:33.050Z,1007.95
2022-08-30T03:20:54.926Z,1007.95
2022-08-30T03:21:16.114Z,1007.95
2022-08-30T03:21:37.156Z,1007.97
2022-08-30T03:21:58.204Z,1007.95
2022-08-30T03:22:19.266Z,1007.97
2022-08-30T03:22:40.311Z,1007.85
2022-08-30T03:23:01.370Z,1007.87
2022-08-30T03:23:22.523Z,1007.87
2022-08-30T03:23:43.581Z,1007.95
2022-08-30T03:24:04.633Z,1007.95
2022-08-30T03:24:25.678Z,1007.95
2022-08-30T03:24:46.735Z,1007.97
2022-08-30T03:25:07.901Z,1007.95
2022-08-30T03:25:28.950Z,1007.95
2022-08-30T03:25:50.015Z,1007.97
2022-08-30T03:26:11.115Z,1007.99
2022-08-30T03:26:32.159Z,1007.99
2022-08-30T03:26:53.212Z,1007.95
2022-08-30T03:27:14.256Z,1007.99
2022-08-30T03:27:35.308Z,1007.97
2022-08-30T03:27:56.358Z,1007.99
2022-08-30T03:28:17.407Z,1007.99
2022-08-30T03:28:38.462Z,1008.03
2022-08-30T03:28:59.508Z,1007.99
2022-08-30T03:29:20.559Z,1007.97
2022-08-30T03:29:41.612Z,1007.99
2022-08-30T03:30:02.663Z,1007.99
2022-08-30T03:30:23.737Z,1007.97
2022-08-30T03:30:44.783Z,1007.99
2022-08-30T03:31:05.840Z,1008.01
2022-08-30T03:31:26.946Z,1007.97
2022-08-30T03:31:52.808Z,1007.99
2022-08-30T03:32:15.028Z,1007.97
2022-08-30T03:32:36.044Z,1007.99
2022-08-30T03:32:57.086Z,1007.97
2022-08-30T03:33:18.639Z,1007.97
2022-08-30T03:33:42.889Z,1007.99
2022-08-30T03:34:03.935Z,1007.99
2022-08-30T03:34:24.982Z,1007.99
2022-08-30T03:34:46.031Z,1008.01
2022-08-30T03:35:07.079Z,1008.03
2022-08-30T03:35:28.152Z,1008.03
2022-08-30T03:35:55.120Z,1008.01
2022-08-30T03:36:16.180Z,1008.05
2022-08-30T03:36:37.228Z,1008.05
2022-08-30T03:36:58.284Z,1008.05
2022-08-30T03:37:19.325Z,1008.03
2022-08-30T03:37:40.372Z,1008.07
2022-08-30T03:38:01.450Z,1008.05
2022-08-30T03:38:22.475Z,1008.07
2022-08-30T03:38:43.519Z,1008.07
2022-08-30T03:39:04.566Z,1008.05
2022-08-30T03:39:28.055Z,1008.05
2022-08-30T03:39:49.101Z,1008.05
2022-08-30T03:40:10.191Z,1008.05
2022-08-30T03:40:31.585Z,1008.05
2022-08-30T03:40:52.620Z,1008.05
2022-08-30T03:41:13.865Z,1008.07
2022-08-30T03:41:34.914Z,1008.05
2022-08-30T03:41:55.962Z,1008.05
2022-08-30T03:42:17.026Z,1008.05
2022-08-30T03:42:38.075Z,1008.01
2022-08-30T03:43:00.592Z,1008.03
2022-08-30T03:43:21.731Z,1008.03
2022-08-30T03:43:44.632Z,1008.05
2022-08-30T03:44:05.678Z,1008.01
2022-08-30T03:44:26.727Z,1008.01
2022-08-30T03:44:48.658Z,1008.03
2022-08-30T03:45:09.703Z,1008.03
2022-08-30T03:45:30.786Z,1008.05
2022-08-30T03:45:51.985Z,1008.01
2022-08-30T03:46:13.067Z,1008.03
2022-08-30T03:46:37.194Z,1008.01
2022-08-30T03:46:58.520Z,1007.99
2022-08-30T03:47:19.573Z,1008.01
2022-08-30T03:47:41.042Z,1008.01
2022-08-30T03:48:02.954Z,1008.03
2022-08-30T03:48:24.000Z,1008.03
2022-08-30T03:48:45.052Z,1008.03
2022-08-30T03:49:06.109Z,1008.01
2022-08-30T03:49:27.145Z,1008.03
2022-08-30T03:49:48.202Z,1008.01
2022-08-30T03:50:09.244Z,1007.99
2022-08-30T03:50:30.300Z,1008.01
2022-08-30T03:50:51.348Z,1007.99
2022-08-30T03:51:12.420Z,1007.99
2022-08-30T03:51:33.472Z,1007.99
2022-08-30T03:51:54.523Z,1007.97
2022-08-30T03:52:15.583Z,1007.95
2022-08-30T03:52:37.264Z,1007.95
2022-08-30T03:52:58.323Z,1007.87
2022-08-30T03:53:19.370Z,1007.95
2022-08-30T03:53:40.425Z,1007.87
2022-08-30T03:54:01.478Z,1007.87
2022-08-30T03:54:24.699Z,1007.95
2022-08-30T03:54:45.854Z,1007.87
2022-08-30T03:55:06.911Z,1007.95
2022-08-30T03:55:27.960Z,1007.95
2022-08-30T03:55:49.073Z,1007.97
2022-08-30T03:56:10.176Z,1007.99
2022-08-30T03:56:31.250Z,1007.99
2022-08-30T03:56:52.304Z,1007.99
2022-08-30T03:57:20.082Z,1008.01
2022-08-30T03:57:40.319Z,1007.99
2022-08-30T03:58:04.490Z,1007.99
2022-08-30T03:58:25.537Z,1008.01
2022-08-30T03:58:46.592Z,1008.01
2022-08-30T03:59:07.636Z,1008.01
2022-08-30T03:59:28.686Z,1007.99
2022-08-30T03:59:49.737Z,1008.01
2022-08-30T04:00:10.783Z,1008.01
2022-08-30T04:00:31.842Z,1008.03
2022-08-30T04:00:52.982Z,1008.03
2022-08-30T04:01:14.051Z,1008.03
2022-08-30T04:01:35.156Z,1008.01
2022-08-30T04:01:56.260Z,1008.01
2022-08-30T04:02:17.403Z,1008.03
2022-08-30T04:02:38.501Z,1008.05
2022-08-30T04:02:59.547Z,1008.03
2022-08-30T04:03:20.599Z,1008.05
2022-08-30T04:03:41.650Z,1008.05
2022-08-30T04:04:02.707Z,1008.05
2022-08-30T04:04:24.567Z,1008.05
2022-08-30T04:04:45.616Z,1008.07
2022-08-30T04:05:06.668Z,1008.09
2022-08-30T04:05:27.727Z,1008.07
2022-08-30T04:05:48.771Z,1008.07
2022-08-30T04:06:09.818Z,1008.09
2022-08-30T04:06:30.870Z,1008.09
2022-08-30T04:06:52.037Z,1008.09
2022-08-30T04:07:13.087Z,1008.07
2022-08-30T04:07:34.143Z,1008.09
2022-08-30T04:07:55.202Z,1008.07
2022-08-30T04:08:16.256Z,1008.07
2022-08-30T04:08:37.305Z,1008.07
2022-08-30T04:08:58.354Z,1008.05
2022-08-30T04:09:19.410Z,1008.05
2022-08-30T04:09:40.451Z,1008.03
2022-08-30T04:10:01.504Z,1008.05
2022-08-30T04:10:22.565Z,1008.01
2022-08-30T04:10:43.607Z,1008.03
2022-08-30T04:11:05.168Z,1008.03
2022-08-30T04:11:26.285Z,1008.01
2022-08-30T04:11:47.346Z,1007.97
2022-08-30T04:12:08.503Z,1007.97
2022-08-30T04:12:29.554Z,1007.99
2022-08-30T04:12:50.610Z,1007.97
2022-08-30T04:13:11.659Z,1007.95
2022-08-30T04:13:32.711Z,1007.95
2022-08-30T04:13:53.762Z,1007.95
2022-08-30T04:14:14.808Z,1007.95
2022-08-30T04:14:35.860Z,1007.87
2022-08-30T04:14:56.904Z,1007.87
2022-08-30T04:15:17.955Z,1007.87
2022-08-30T04:15:39.006Z,1007.87
2022-08-30T04:16:00.167Z,1007.95
2022-08-30T04:16:21.284Z,1007.85
2022-08-30T04:16:42.424Z,1007.85
2022-08-30T04:17:03.509Z,1007.83